map of SEE home
SEE - Airport
Location
City:  San Diego/El Cajon, California, United States
Name:Gillespie Field
ICAO:KSEE
IATA:SEE
FAA LID:SEE

Details
Type:Airport (Airfield)
Use:Public/Civil
Latitude:3249'34"N (32.826222)
Longitude:11658'21"W (-116.972443)
Datum:WGS 1984
Elevation:387 ft (118 m)
Variation:11.50E (WMM2015 magnetic declination)
-0.09 annual change
Runways:3
Longest:5342 × 100 ft (1628 × 30.5 m), paved

Time
Time Zone:UTC-8 (DST-7)
Local Time:

Weather
METAR:KSEE 220715Z AUTO 27004KT 10SM CLR 15/03 A3004 RMK AO2

Related Locations
Nearby:
Farthest:RRG: 11530 mi / 18556 km
Plaine Corail [Sir Gatan Duval Airport (Plaine Corail Airport)], Rodrigues Island, MU

Find:

   beyond  
but within

Other Information
Maps:
NOTAMs:
Links:
Sources:

  
flag of United States
flag of California
  

Airport Diagram

Airport diagram for SEE

Airport diagram PDF

Sectional Chart

Flight Planning
at skyvector.com

Satellite Image

Google Maps Satellite view

 

Copyright © 2004-2017 Karl L. Swartz. All rights reserved.
The Great Circle Mapper name and logo are trademarks of the Great Circle Mapper.
All other trademarks mentioned herein belong to their respective owners.
Please see credits for attibutions and further copyright information.

  Follow gcmap on Facebook Follow gcmap on Twitter Follow gcmap on Google+ GCmap on LinkedIn

hCard Microformat

Geo Microformat